Time;durP1;ratioP1;P1;durP2;ratioP2;P2;SDS_P1;SDS_P2;PMS_P1;PMS_P2;Temp;Humidity;BMP_temperature;BMP_pressure;BME280_temperature;BME280_humidity;BME280_pressure;Samples;Min_cycle;Max_cycle;Signal;HPM_P1;HPM_P2
2023/05/04 00:02:22;;;;;;;14.02;6.07;;;8.10;99.90;;;;;;5070691;28;20174;-81
2023/05/04 00:04:51;;;;;;;13.30;6.47;;;8.10;99.90;;;;;;5087667;28;20221;-81
2023/05/04 00:07:17;;;;;;;11.80;6.65;;;8.10;99.90;;;;;;5091369;28;20212;-81
2023/05/04 00:09:42;;;;;;;13.38;6.55;;;8.10;99.90;;;;;;5090288;28;20189;-81
2023/05/04 00:12:08;;;;;;;14.23;5.93;;;8.10;99.90;;;;;;5091030;28;20220;-81
2023/05/04 00:14:35;;;;;;;14.15;6.28;;;8.10;99.90;;;;;;5090474;28;20265;-80
2023/05/04 00:17:05;;;;;;;12.40;6.75;;;8.10;99.90;;;;;;5091977;28;20268;-81
2023/05/04 00:19:31;;;;;;;17.70;7.40;;;8.00;99.90;;;;;;5068244;28;20244;-81
2023/05/04 00:21:57;;;;;;;15.35;6.45;;;8.00;99.90;;;;;;5057800;28;20204;-81
2023/05/04 00:24:23;;;;;;;11.23;6.65;;;8.00;99.90;;;;;;5090535;28;20177;-81
2023/05/04 00:26:49;;;;;;;12.27;6.13;;;8.00;99.90;;;;;;5091195;28;20210;-83
2023/05/04 00:29:14;;;;;;;12.65;6.38;;;8.00;99.90;;;;;;5085944;28;20301;-81
2023/05/04 00:31:40;;;;;;;10.10;6.45;;;7.90;99.90;;;;;;5038163;28;20221;-81
2023/05/04 00:34:06;;;;;;;10.90;5.88;;;7.90;99.90;;;;;;5086394;28;20581;-81
2023/05/04 00:36:32;;;;;;;13.35;6.15;;;7.90;99.90;;;;;;5070602;28;20632;-80
2023/05/04 00:38:58;;;;;;;17.73;6.68;;;7.90;99.90;;;;;;5054994;28;20210;-82
2023/05/04 00:41:23;;;;;;;12.00;6.15;;;7.90;99.90;;;;;;5091415;28;20541;-81
2023/05/04 00:43:49;;;;;;;18.88;6.43;;;7.90;99.90;;;;;;5090504;28;20840;-81
2023/05/04 00:46:16;;;;;;;12.35;6.20;;;7.90;99.90;;;;;;5073870;28;20170;-80
2023/05/04 00:48:47;;;;;;;13.95;6.22;;;7.90;99.90;;;;;;5072248;28;20182;-82
2023/05/04 00:51:15;;;;;;;12.20;5.93;;;7.90;99.90;;;;;;5091159;28;20182;-81
2023/05/04 00:53:41;;;;;;;12.20;5.85;;;7.90;99.90;;;;;;5090647;28;20637;-83
2023/05/04 00:56:07;;;;;;;10.68;5.72;;;7.80;99.90;;;;;;5085517;28;20314;-81
2023/05/04 00:58:33;;;;;;;10.10;6.28;;;7.80;99.90;;;;;;5089904;28;20223;-82
2023/05/04 01:01:00;;;;;;;14.82;6.45;;;7.80;99.90;;;;;;5089930;28;20273;-81
2023/05/04 01:03:27;;;;;;;12.38;7.00;;;7.80;99.90;;;;;;5073953;28;20232;-81
2023/05/04 01:06:19;;;;;;;11.65;6.50;;;7.80;99.90;;;;;;5073492;28;20197;-80
2023/05/04 01:08:56;;;;;;;16.10;7.13;;;7.80;99.90;;;;;;5086216;28;20196;-81
2023/05/04 01:11:41;;;;;;;11.93;7.18;;;7.80;99.90;;;;;;5087355;28;20170;-81
2023/05/04 01:14:09;;;;;;;13.98;7.20;;;7.70;99.90;;;;;;5090195;28;20760;-81
2023/05/04 01:16:35;;;;;;;15.93;7.80;;;7.70;99.90;;;;;;5093795;28;20182;-81
2023/05/04 01:19:02;;;;;;;18.17;7.43;;;7.70;99.90;;;;;;5057348;28;20655;-82
2023/05/04 01:21:29;;;;;;;10.23;6.72;;;7.80;99.90;;;;;;5084809;28;20639;-81
2023/05/04 01:23:55;;;;;;;15.10;7.32;;;7.70;99.90;;;;;;5092289;28;20249;-81
2023/05/04 01:26:31;;;;;;;15.70;7.20;;;7.70;99.90;;;;;;5057804;28;20181;-81
2023/05/04 01:29:13;;;;;;;13.20;7.15;;;7.70;99.90;;;;;;5086043;28;20214;-80
2023/05/04 01:31:39;;;;;;;13.40;7.20;;;7.70;99.90;;;;;;5093615;28;20192;-82
2023/05/04 01:34:07;;;;;;;12.00;6.68;;;7.60;99.90;;;;;;5093526;28;20246;-81
2023/05/04 01:36:34;;;;;;;21.05;6.88;;;7.60;99.90;;;;;;5084613;28;20178;-82
2023/05/04 01:39:02;;;;;;;19.80;7.50;;;7.60;99.90;;;;;;5074312;28;20178;-81
2023/05/04 01:41:29;;;;;;;15.07;7.03;;;7.60;99.90;;;;;;5095236;28;20180;-83
2023/05/04 01:43:55;;;;;;;16.25;7.05;;;7.60;99.90;;;;;;5091694;28;20190;-82
2023/05/04 01:46:21;;;;;;;13.52;6.75;;;7.60;99.90;;;;;;5093355;28;20193;-81
2023/05/04 01:48:47;;;;;;;12.70;7.03;;;7.60;99.90;;;;;;5092496;28;20178;-81
2023/05/04 01:51:13;;;;;;;14.80;7.10;;;7.60;99.90;;;;;;5077311;28;20206;-82
2023/05/04 01:53:38;;;;;;;16.65;6.97;;;7.50;99.90;;;;;;5091861;28;20643;-82
2023/05/04 01:56:05;;;;;;;11.70;6.45;;;7.50;99.90;;;;;;5038450;28;20228;-82
2023/05/04 01:58:31;;;;;;;18.30;7.45;;;7.50;99.90;;;;;;5090886;28;20192;-83
2023/05/04 02:01:00;;;;;;;14.25;7.25;;;7.50;99.90;;;;;;5090561;28;20711;-81
2023/05/04 02:03:26;;;;;;;16.15;6.82;;;7.50;99.90;;;;;;5076114;28;20503;-83
2023/05/04 02:05:52;;;;;;;11.60;6.70;;;7.50;99.90;;;;;;5084033;28;20185;-81
2023/05/04 02:08:18;;;;;;;21.48;7.43;;;7.50;99.90;;;;;;5060166;28;20617;-82
2023/05/04 02:10:44;;;;;;;17.58;7.60;;;7.50;99.90;;;;;;5075182;28;20190;-81
2023/05/04 02:13:10;;;;;;;14.18;7.03;;;7.50;99.90;;;;;;5093979;28;20720;-81
2023/05/04 02:15:36;;;;;;;16.95;7.10;;;7.50;99.90;;;;;;5091059;28;20190;-81
2023/05/04 02:18:01;;;;;;;16.45;7.60;;;7.50;99.90;;;;;;5093514;28;20201;-82
2023/05/04 02:20:27;;;;;;;12.35;7.28;;;7.50;99.90;;;;;;5091453;28;20182;-82
2023/05/04 02:22:53;;;;;;;16.30;7.20;;;7.40;99.90;;;;;;5075025;28;20754;-81
2023/05/04 02:25:19;;;;;;;13.80;7.45;;;7.50;99.90;;;;;;5058296;28;20591;-80
2023/05/04 02:27:45;;;;;;;12.27;7.28;;;7.40;99.90;;;;;;5074246;28;20217;-80
2023/05/04 02:30:11;;;;;;;15.75;7.35;;;7.40;99.90;;;;;;5091631;28;20211;-80
2023/05/04 02:32:37;;;;;;;13.80;7.68;;;7.40;99.90;;;;;;5083891;28;20262;-80
2023/05/04 02:35:03;;;;;;;16.48;7.90;;;7.40;99.90;;;;;;5090890;28;20232;-81
2023/05/04 02:37:29;;;;;;;16.58;7.75;;;7.40;99.90;;;;;;5093781;28;20311;-82
2023/05/04 02:39:54;;;;;;;15.40;7.78;;;7.40;99.90;;;;;;5074364;28;20192;-81
2023/05/04 02:42:22;;;;;;;13.15;7.57;;;7.40;99.90;;;;;;5076657;28;20193;-81
2023/05/04 02:44:47;;;;;;;16.25;8.02;;;7.30;99.90;;;;;;5090395;28;20281;-81
2023/05/04 02:47:13;;;;;;;17.58;7.68;;;7.30;99.90;;;;;;5092959;28;20332;-81
2023/05/04 02:49:39;;;;;;;15.65;8.05;;;7.30;99.90;;;;;;5042784;28;20269;-81
2023/05/04 02:52:05;;;;;;;16.02;8.10;;;7.30;99.90;;;;;;5092892;28;20204;-80
2023/05/04 02:54:31;;;;;;;20.65;8.30;;;7.30;99.90;;;;;;5073294;28;20189;-81
2023/05/04 02:56:56;;;;;;;17.60;8.35;;;7.30;99.90;;;;;;5066137;28;20695;-80
2023/05/04 02:59:22;;;;;;;17.75;8.15;;;7.20;99.90;;;;;;5068339;28;20635;-80
2023/05/04 03:01:48;;;;;;;17.25;8.88;;;7.20;99.90;;;;;;5092748;28;20221;-81
2023/05/04 03:04:14;;;;;;;22.92;8.48;;;7.20;99.90;;;;;;5086790;28;20200;-81
2023/05/04 03:06:40;;;;;;;15.88;8.30;;;7.20;99.90;;;;;;5072203;28;20206;-81
2023/05/04 03:09:05;;;;;;;18.08;8.23;;;7.20;99.90;;;;;;5073293;28;20198;-81
2023/05/04 03:11:31;;;;;;;16.75;8.95;;;7.20;99.90;;;;;;5090642;28;20265;-81
2023/05/04 03:13:57;;;;;;;17.38;8.70;;;7.20;99.90;;;;;;5073870;28;20183;-83
2023/05/04 03:16:23;;;;;;;16.05;8.55;;;7.20;99.90;;;;;;5056852;28;20562;-81
2023/05/04 03:18:49;;;;;;;16.88;8.73;;;7.10;99.90;;;;;;5070179;28;20320;-81
2023/05/04 03:21:16;;;;;;;20.00;8.43;;;7.20;99.90;;;;;;5075703;28;20206;-81
2023/05/04 03:23:42;;;;;;;15.88;9.27;;;7.20;99.90;;;;;;5073581;28;20627;-81
2023/05/04 03:26:08;;;;;;;17.35;9.38;;;7.10;99.90;;;;;;5075608;28;20208;-81
2023/05/04 03:28:33;;;;;;;19.15;9.18;;;7.10;99.90;;;;;;5091438;28;20214;-82
2023/05/04 03:30:59;;;;;;;13.80;9.00;;;7.10;99.90;;;;;;5069507;28;20230;-81
2023/05/04 03:33:25;;;;;;;24.33;9.88;;;7.10;99.90;;;;;;5078132;28;20670;-82
2023/05/04 03:35:53;;;;;;;19.52;9.38;;;7.10;99.90;;;;;;5056609;28;20277;-82
2023/05/04 03:38:19;;;;;;;19.77;8.85;;;7.10;99.90;;;;;;5074906;28;20182;-82
2023/05/04 03:40:45;;;;;;;15.65;9.05;;;7.10;99.90;;;;;;5071418;28;20193;-80
2023/05/04 03:43:12;;;;;;;13.95;8.80;;;7.10;99.90;;;;;;5075437;28;20654;-81
2023/05/04 03:45:38;;;;;;;16.17;9.13;;;7.10;99.90;;;;;;5084034;28;20181;-83
2023/05/04 03:48:04;;;;;;;19.45;9.43;;;7.00;99.90;;;;;;5070985;28;20680;-81
2023/05/04 03:50:30;;;;;;;15.93;9.13;;;7.10;99.90;;;;;;5087495;28;20198;-81
2023/05/04 03:52:56;;;;;;;17.55;9.18;;;7.00;99.90;;;;;;5092224;28;20268;-81
2023/05/04 03:55:24;;;;;;;17.10;9.35;;;7.10;99.90;;;;;;5072394;28;20185;-80
2023/05/04 03:57:50;;;;;;;18.75;9.63;;;7.00;99.90;;;;;;5079515;28;20684;-80
2023/05/04 04:00:17;;;;;;;19.10;9.48;;;7.10;99.90;;;;;;5086531;28;20182;-81
2023/05/04 04:02:50;;;;;;;18.83;9.23;;;7.10;99.90;;;;;;5075377;28;20620;-81
2023/05/04 04:05:18;;;;;;;18.73;9.95;;;7.10;99.90;;;;;;5090575;28;20174;-81
2023/05/04 04:07:45;;;;;;;16.98;9.18;;;7.00;99.90;;;;;;5090000;28;20198;-82
2023/05/04 04:10:11;;;;;;;15.27;9.38;;;7.00;99.90;;;;;;5088813;28;20697;-80
2023/05/04 04:12:37;;;;;;;21.10;9.95;;;7.00;99.90;;;;;;5078167;28;20182;-81
2023/05/04 04:15:03;;;;;;;17.90;9.40;;;7.00;99.90;;;;;;5084529;28;20189;-82
2023/05/04 04:17:29;;;;;;;20.73;10.55;;;7.00;99.90;;;;;;5087487;28;20181;-81
2023/05/04 04:19:54;;;;;;;20.20;9.45;;;7.00;99.90;;;;;;5083253;28;20189;-81
2023/05/04 04:22:20;;;;;;;20.90;10.27;;;7.10;99.90;;;;;;5072118;28;20179;-81
2023/05/04 04:24:46;;;;;;;19.58;9.68;;;7.00;99.90;;;;;;5081080;28;20185;-81
2023/05/04 04:27:12;;;;;;;17.83;9.90;;;7.00;99.90;;;;;;5091455;28;20257;-81
2023/05/04 04:29:38;;;;;;;16.45;9.35;;;7.10;99.90;;;;;;5073922;28;20190;-80
2023/05/04 04:32:04;;;;;;;18.15;10.07;;;7.10;99.90;;;;;;5084365;28;20177;-80
2023/05/04 04:34:30;;;;;;;19.73;9.80;;;7.10;99.90;;;;;;5069582;28;20277;-81
2023/05/04 04:36:57;;;;;;;17.85;9.52;;;7.10;99.90;;;;;;5091135;28;20233;-81
2023/05/04 04:39:23;;;;;;;19.15;9.45;;;7.10;99.90;;;;;;5073416;28;20335;-82
2023/05/04 04:41:49;;;;;;;19.35;9.40;;;7.10;99.90;;;;;;5091053;28;20730;-83
2023/05/04 04:44:15;;;;;;;17.65;9.55;;;7.10;99.90;;;;;;5072179;28;20624;-83
2023/05/04 04:46:45;;;;;;;16.55;9.43;;;7.20;99.90;;;;;;5063008;28;20187;-82
2023/05/04 04:49:11;;;;;;;17.52;9.10;;;7.20;99.90;;;;;;5076066;28;20198;-82
2023/05/04 04:51:39;;;;;;;16.98;10.15;;;7.20;99.90;;;;;;5090733;28;20204;-82
2023/05/04 04:54:05;;;;;;;23.48;9.48;;;7.20;99.90;;;;;;5090110;28;20186;-83
2023/05/04 04:56:31;;;;;;;21.08;10.10;;;7.20;99.90;;;;;;5081305;28;20221;-82
2023/05/04 04:58:57;;;;;;;15.75;9.05;;;7.20;99.90;;;;;;5088308;28;20182;-83
2023/05/04 05:01:23;;;;;;;17.63;9.70;;;7.20;99.90;;;;;;5073267;28;20643;-82
2023/05/04 05:03:49;;;;;;;17.95;9.57;;;7.20;99.90;;;;;;5090583;28;20618;-83
2023/05/04 05:06:15;;;;;;;18.95;10.02;;;7.30;99.90;;;;;;5092010;28;20182;-81
2023/05/04 05:08:42;;;;;;;17.80;9.40;;;7.30;99.90;;;;;;5088995;28;21173;-80
2023/05/04 05:11:09;;;;;;;15.02;8.98;;;7.30;99.90;;;;;;5081919;28;20190;-80
2023/05/04 05:13:35;;;;;;;23.27;9.57;;;7.30;99.90;;;;;;5070950;28;20269;-82
2023/05/04 05:16:01;;;;;;;16.60;9.48;;;7.30;99.90;;;;;;5053985;28;20339;-82
2023/05/04 05:18:28;;;;;;;22.35;10.45;;;7.40;99.90;;;;;;5082071;28;20247;-83
2023/05/04 05:20:55;;;;;;;21.20;9.63;;;7.40;99.90;;;;;;5091692;28;20181;-81
2023/05/04 05:23:21;;;;;;;15.95;9.60;;;7.40;99.90;;;;;;5091243;28;20186;-81
2023/05/04 05:25:46;;;;;;;18.10;10.38;;;7.50;99.90;;;;;;5075691;28;20205;-82
2023/05/04 05:28:13;;;;;;;15.93;8.95;;;7.50;99.90;;;;;;5072352;28;20324;-81
2023/05/04 05:30:39;;;;;;;22.30;10.00;;;7.50;99.90;;;;;;5079748;28;20243;-82
2023/05/04 05:33:04;;;;;;;17.38;10.02;;;7.60;99.90;;;;;;5091501;28;20194;-82
2023/05/04 05:35:30;;;;;;;22.05;10.38;;;7.60;99.90;;;;;;5057411;28;20515;-81
2023/05/04 05:37:57;;;;;;;21.45;9.60;;;7.60;99.90;;;;;;5091476;28;20190;-82
2023/05/04 05:40:23;;;;;;;18.70;9.35;;;7.60;99.90;;;;;;5092100;28;20179;-80
2023/05/04 05:42:48;;;;;;;19.52;10.07;;;7.70;99.90;;;;;;5082083;28;20608;-81
2023/05/04 05:45:14;;;;;;;19.40;9.40;;;7.70;99.90;;;;;;5091495;28;20186;-81
2023/05/04 05:47:40;;;;;;;23.90;9.68;;;7.70;99.90;;;;;;5092404;28;20683;-80
2023/05/04 05:50:07;;;;;;;19.30;10.30;;;7.70;99.90;;;;;;5074342;28;20197;-82
2023/05/04 05:52:33;;;;;;;14.63;9.18;;;7.80;99.90;;;;;;5090142;28;20220;-82
2023/05/04 05:54:58;;;;;;;18.65;10.18;;;7.80;99.90;;;;;;5089859;28;20207;-80
2023/05/04 05:57:24;;;;;;;14.77;9.23;;;7.90;99.90;;;;;;5091956;28;20222;-80
2023/05/04 05:59:50;;;;;;;17.88;9.60;;;7.90;99.90;;;;;;5090372;28;20189;-80
2023/05/04 06:02:16;;;;;;;17.80;9.80;;;8.00;99.90;;;;;;5091807;28;20197;-80
2023/05/04 06:04:43;;;;;;;19.98;9.05;;;8.00;99.90;;;;;;5093659;28;20190;-80
2023/05/04 06:07:09;;;;;;;19.52;9.82;;;8.10;99.90;;;;;;5077407;28;20197;-79
2023/05/04 06:09:35;;;;;;;16.65;9.35;;;8.10;99.90;;;;;;5094292;28;20190;-82
2023/05/04 06:12:02;;;;;;;19.23;9.05;;;8.20;99.90;;;;;;5094969;28;20197;-82
2023/05/04 06:14:27;;;;;;;15.23;9.18;;;8.30;99.90;;;;;;5093478;28;20212;-82
2023/05/04 06:16:53;;;;;;;17.30;9.25;;;8.30;99.90;;;;;;5081399;28;20186;-81
2023/05/04 06:19:19;;;;;;;19.10;9.95;;;8.40;99.90;;;;;;5093998;28;20186;-82
2023/05/04 06:21:48;;;;;;;18.88;9.45;;;8.40;99.90;;;;;;5092370;28;20645;-82
2023/05/04 06:24:13;;;;;;;22.38;9.27;;;8.50;99.90;;;;;;5095576;28;20169;-89
2023/05/04 06:26:39;;;;;;;19.58;8.98;;;8.60;99.90;;;;;;5095821;28;20194;-83
2023/05/04 06:29:05;;;;;;;18.30;8.63;;;8.60;99.90;;;;;;5093977;28;20265;-82
2023/05/04 06:31:31;;;;;;;15.40;8.68;;;8.70;99.90;;;;;;5093838;28;20178;-82
2023/05/04 06:33:57;;;;;;;19.55;9.77;;;8.70;99.90;;;;;;5077416;28;20277;-81
2023/05/04 06:36:24;;;;;;;15.73;8.60;;;8.80;99.90;;;;;;5074567;28;20202;-81
2023/05/04 06:38:50;;;;;;;19.55;9.40;;;8.80;99.90;;;;;;5082675;28;20182;-81
2023/05/04 06:41:16;;;;;;;19.02;9.32;;;8.90;99.90;;;;;;5093430;28;20230;-84
2023/05/04 06:43:42;;;;;;;24.60;9.82;;;8.90;99.90;;;;;;5094533;28;20616;-79
2023/05/04 06:46:08;;;;;;;22.88;9.55;;;8.90;99.90;;;;;;5092545;28;20231;-82
2023/05/04 06:48:35;;;;;;;23.83;10.18;;;9.00;99.90;;;;;;5060719;28;20577;-84
2023/05/04 06:51:01;;;;;;;21.60;9.55;;;9.10;99.90;;;;;;5091379;28;20348;-81
2023/05/04 06:53:26;;;;;;;18.38;9.40;;;9.10;99.90;;;;;;5087015;28;20652;-81
2023/05/04 06:55:52;;;;;;;17.13;8.50;;;9.20;99.90;;;;;;5092493;28;20181;-80
2023/05/04 06:58:18;;;;;;;21.38;8.75;;;9.30;99.90;;;;;;5094238;28;20257;-80
2023/05/04 07:00:45;;;;;;;16.55;9.23;;;9.30;99.90;;;;;;5092138;28;20181;-82
2023/05/04 07:03:10;;;;;;;21.20;9.00;;;9.50;99.90;;;;;;5092992;28;20186;-81
2023/05/04 07:05:36;;;;;;;19.88;8.73;;;9.50;99.90;;;;;;5091346;28;20197;-81
2023/05/04 07:08:02;;;;;;;14.82;7.78;;;9.70;99.90;;;;;;5074937;28;20296;-80
2023/05/04 07:10:29;;;;;;;15.43;7.72;;;9.70;99.90;;;;;;5072713;28;20162;-80
2023/05/04 07:12:55;;;;;;;17.40;8.48;;;9.80;99.90;;;;;;5073110;28;20257;-81
2023/05/04 07:15:20;;;;;;;18.35;7.95;;;9.80;99.90;;;;;;5073435;28;20235;-81
2023/05/04 07:17:46;;;;;;;16.83;8.20;;;10.00;99.90;;;;;;5093746;28;20662;-80
2023/05/04 07:20:14;;;;;;;18.48;7.53;;;10.10;99.90;;;;;;5093823;28;20174;-80
2023/05/04 07:22:40;;;;;;;16.67;8.27;;;10.30;99.90;;;;;;5092526;28;20174;-80
2023/05/04 07:25:07;;;;;;;14.55;7.90;;;10.40;99.90;;;;;;5087411;28;20281;-80
2023/05/04 07:27:36;;;;;;;13.85;7.53;;;10.50;99.90;;;;;;5093208;28;20262;-80
2023/05/04 07:30:05;;;;;;;15.65;8.02;;;10.50;99.90;;;;;;5092463;28;20185;-80
2023/05/04 07:32:31;;;;;;;20.67;7.72;;;10.60;99.90;;;;;;5093638;28;20257;-81
2023/05/04 07:35:00;;;;;;;15.07;7.93;;;10.70;99.90;;;;;;5088746;28;20185;-81
2023/05/04 07:37:25;;;;;;;15.10;7.45;;;10.70;99.90;;;;;;5087835;28;20219;-81
2023/05/04 07:39:51;;;;;;;14.43;7.35;;;10.80;99.90;;;;;;5075329;28;20217;-82
2023/05/04 07:42:17;;;;;;;18.67;8.20;;;11.00;99.90;;;;;;5074102;28;20182;-81
2023/05/04 07:44:43;;;;;;;16.33;8.13;;;11.10;99.90;;;;;;5083202;28;20636;-80
2023/05/04 07:47:08;;;;;;;18.38;8.10;;;11.20;99.90;;;;;;5091549;28;20209;-80
2023/05/04 07:49:34;;;;;;;15.88;8.20;;;11.20;99.90;;;;;;5091989;28;20193;-80
2023/05/04 07:52:00;;;;;;;18.45;8.10;;;11.30;99.90;;;;;;5075747;28;20193;-83
2023/05/04 07:54:26;;;;;;;16.63;7.70;;;11.40;99.90;;;;;;5091426;28;20194;-81
2023/05/04 07:56:52;;;;;;;13.35;7.82;;;11.50;99.90;;;;;;5092389;28;20239;-81
2023/05/04 07:59:18;;;;;;;14.40;8.35;;;11.60;99.90;;;;;;5085985;28;20196;-80
2023/05/04 08:01:43;;;;;;;21.00;8.02;;;11.60;99.90;;;;;;5092266;28;20265;-80
2023/05/04 08:04:09;;;;;;;16.88;8.10;;;11.60;99.90;;;;;;5091891;28;20277;-79
2023/05/04 08:06:38;;;;;;;20.73;8.60;;;11.70;99.90;;;;;;5091205;28;20586;-79
2023/05/04 08:09:07;;;;;;;15.75;7.90;;;11.80;99.90;;;;;;5093012;28;20201;-79
2023/05/04 08:11:33;;;;;;;14.95;7.70;;;11.80;99.90;;;;;;5091828;28;20178;-79
2023/05/04 08:13:59;;;;;;;14.75;8.23;;;11.80;99.90;;;;;;5092403;28;20209;-80
2023/05/04 08:16:27;;;;;;;14.23;7.68;;;11.90;99.90;;;;;;5082296;28;20667;-79
2023/05/04 08:18:52;;;;;;;18.35;7.78;;;12.00;99.90;;;;;;5093287;28;20178;-79
2023/05/04 08:21:18;;;;;;;17.00;8.00;;;12.10;99.90;;;;;;5058215;28;20649;-79
2023/05/04 08:23:44;;;;;;;25.15;8.40;;;12.20;99.90;;;;;;5092631;28;20215;-79
2023/05/04 08:26:10;;;;;;;14.25;7.70;;;12.30;99.90;;;;;;5089663;28;20186;-80
2023/05/04 08:28:38;;;;;;;13.65;8.55;;;12.50;99.90;;;;;;5091351;28;20206;-80
2023/05/04 08:31:05;;;;;;;19.80;7.68;;;12.60;99.90;;;;;;5091156;28;20201;-79
2023/05/04 08:33:32;;;;;;;19.23;8.52;;;12.60;99.90;;;;;;5072565;28;20270;-79
2023/05/04 08:36:00;;;;;;;14.35;7.78;;;12.80;99.90;;;;;;5071293;28;20201;-80
2023/05/04 08:38:27;;;;;;;16.08;7.82;;;12.90;99.90;;;;;;5088845;28;20190;-80
2023/05/04 08:40:53;;;;;;;16.83;7.85;;;12.90;99.90;;;;;;5092895;28;20261;-80
2023/05/04 08:43:19;;;;;;;19.95;8.27;;;13.00;99.90;;;;;;5092903;28;20583;-81
2023/05/04 08:45:45;;;;;;;15.32;8.35;;;13.10;99.90;;;;;;5074669;28;20178;-80
2023/05/04 08:48:12;;;;;;;16.00;7.93;;;13.10;99.90;;;;;;5089050;28;21194;-81
2023/05/04 08:50:37;;;;;;;17.80;7.80;;;13.30;99.90;;;;;;5085569;28;20194;-80
2023/05/04 08:53:05;;;;;;;16.00;7.40;;;13.30;99.90;;;;;;5091600;28;20174;-81
2023/05/04 08:55:34;;;;;;;14.23;7.57;;;13.40;99.90;;;;;;5091784;28;20178;-80
2023/05/04 08:58:10;;;;;;;12.95;7.30;;;13.50;99.90;;;;;;5088771;28;20222;-81
2023/05/04 09:00:37;;;;;;;17.65;7.45;;;13.50;99.90;;;;;;5091833;28;20196;-80
2023/05/04 09:03:04;;;;;;;15.52;7.30;;;13.70;99.90;;;;;;5091172;28;20534;-81
2023/05/04 09:05:31;;;;;;;17.92;8.13;;;13.80;99.90;;;;;;5090812;28;20190;-80
2023/05/04 09:07:57;;;;;;;14.27;7.20;;;13.90;99.90;;;;;;5080961;28;20218;-79
2023/05/04 09:10:23;;;;;;;15.23;7.65;;;14.00;99.90;;;;;;5087131;28;20185;-81
2023/05/04 09:12:52;;;;;;;14.52;7.20;;;14.10;99.90;;;;;;5072776;28;20177;-80
2023/05/04 09:15:19;;;;;;;18.27;7.43;;;14.20;99.90;;;;;;5074966;28;20270;-79
2023/05/04 09:18:02;;;;;;;14.13;6.72;;;14.30;99.90;;;;;;5053796;28;20178;-82
2023/05/04 09:20:28;;;;;;;11.18;6.18;;;14.50;99.90;;;;;;5072340;28;20189;-82
2023/05/04 09:23:06;;;;;;;14.20;7.68;;;14.60;99.90;;;;;;5081748;28;20639;-80
2023/05/04 09:25:47;;;;;;;18.30;7.28;;;14.70;99.90;;;;;;5091358;28;20188;-81
2023/05/04 09:28:14;;;;;;;15.90;7.97;;;14.90;99.90;;;;;;5090887;28;20194;-81
2023/05/04 09:30:40;;;;;;;12.63;6.97;;;15.10;99.90;;;;;;5092303;28;20175;-81
2023/05/04 09:33:06;;;;;;;14.48;6.20;;;15.20;99.90;;;;;;5092789;28;20284;-82
2023/05/04 09:35:32;;;;;;;13.63;6.78;;;15.20;99.90;;;;;;5089136;28;20753;-80
2023/05/04 09:38:01;;;;;;;12.20;6.45;;;15.20;99.90;;;;;;5091367;28;20189;-80
2023/05/04 09:40:39;;;;;;;13.40;7.30;;;15.30;99.90;;;;;;5090738;28;20177;-80
2023/05/04 09:43:06;;;;;;;16.15;7.40;;;15.40;99.90;;;;;;5095922;28;20631;-80
2023/05/04 09:45:43;;;;;;;16.10;6.70;;;15.50;99.90;;;;;;5094587;28;20193;-81
2023/05/04 09:48:19;;;;;;;13.02;6.43;;;15.80;99.90;;;;;;5095203;28;20192;-81
2023/05/04 09:50:58;;;;;;;16.67;6.90;;;15.90;99.50;;;;;;5095330;28;20242;-80
2023/05/04 09:53:26;;;;;;;12.25;6.25;;;16.00;99.00;;;;;;5094769;28;20166;-79
2023/05/04 09:56:16;;;;;;;15.25;6.35;;;16.10;98.70;;;;;;5095039;28;20185;-81
2023/05/04 09:58:45;;;;;;;14.40;6.65;;;16.20;98.20;;;;;;5075330;28;20177;-80
2023/05/04 10:01:11;;;;;;;12.13;6.60;;;16.30;98.50;;;;;;5095594;28;20277;-81
2023/05/04 10:03:37;;;;;;;15.10;6.78;;;16.40;97.80;;;;;;5094312;28;20635;-80
2023/05/04 10:06:04;;;;;;;11.93;6.25;;;16.50;97.60;;;;;;5095612;28;20182;-80
2023/05/04 10:08:33;;;;;;;11.68;6.30;;;16.60;97.20;;;;;;5095727;28;20213;-80
2023/05/04 10:10:59;;;;;;;14.35;6.45;;;16.70;96.70;;;;;;5094533;28;20186;-79
2023/05/04 10:13:25;;;;;;;11.60;6.07;;;16.80;96.50;;;;;;5091521;28;20540;-80
2023/05/04 10:16:17;;;;;;;12.38;5.95;;;16.70;96.00;;;;;;5090803;28;20190;-80
2023/05/04 10:19:09;;;;;;;13.15;5.82;;;16.80;95.80;;;;;;5096174;28;20207;-79
2023/05/04 10:22:07;;;;;;;14.18;6.13;;;16.90;95.80;;;;;;5094983;28;20632;-80
2023/05/04 10:24:39;;;;;;;10.15;5.25;;;17.00;95.40;;;;;;5094662;28;20188;-81
2023/05/04 10:27:12;;;;;;;13.80;5.55;;;17.10;95.30;;;;;;5093689;28;20205;-80
2023/05/04 10:29:39;;;;;;;11.77;5.75;;;17.30;95.10;;;;;;5093980;28;20186;-79
2023/05/04 10:32:06;;;;;;;12.23;6.20;;;17.40;94.50;;;;;;5094491;28;20186;-79
2023/05/04 10:34:34;;;;;;;15.70;6.47;;;17.40;94.20;;;;;;5095348;28;20181;-78
2023/05/04 10:37:01;;;;;;;10.98;5.95;;;17.40;94.20;;;;;;5095741;28;20718;-80
2023/05/04 10:39:32;;;;;;;10.02;5.65;;;17.40;94.10;;;;;;5092492;28;20544;-81
2023/05/04 10:42:00;;;;;;;9.35;5.25;;;17.40;93.90;;;;;;5094124;28;20256;-80
2023/05/04 10:44:28;;;;;;;11.68;5.53;;;17.40;93.90;;;;;;5093801;28;20182;-80
2023/05/04 10:47:05;;;;;;;11.07;5.15;;;17.50;93.70;;;;;;5092413;28;20254;-80
2023/05/04 10:49:32;;;;;;;11.50;5.90;;;17.60;94.00;;;;;;5078297;28;20654;-80
2023/05/04 10:52:14;;;;;;;14.05;6.00;;;17.80;93.20;;;;;;5076755;28;20212;-79
2023/05/04 10:54:41;;;;;;;8.63;5.95;;;17.80;92.90;;;;;;5093395;28;20197;-80
2023/05/04 10:57:09;;;;;;;12.38;6.10;;;17.90;92.90;;;;;;5093000;28;20321;-80
2023/05/04 10:59:35;;;;;;;12.13;5.70;;;18.00;92.40;;;;;;5093714;28;20178;-79
2023/05/04 11:02:02;;;;;;;15.35;6.30;;;18.00;92.10;;;;;;5092955;28;20194;-79
2023/05/04 11:04:29;;;;;;;12.85;6.00;;;18.10;91.80;;;;;;5100032;28;20221;-80
2023/05/04 11:07:03;;;;;;;8.98;6.20;;;18.10;91.50;;;;;;5095850;28;20170;-80
2023/05/04 11:09:36;;;;;;;11.00;5.93;;;18.20;91.30;;;;;;5093822;28;20234;-81
2023/05/04 11:12:02;;;;;;;15.30;5.95;;;18.30;91.10;;;;;;5094240;28;20196;-80
2023/05/04 11:14:28;;;;;;;11.25;6.00;;;18.30;91.10;;;;;;5094320;28;20197;-82
2023/05/04 11:17:08;;;;;;;11.23;5.88;;;18.40;90.30;;;;;;5093377;28;20624;-80
2023/05/04 11:19:34;;;;;;;10.05;5.50;;;18.30;89.90;;;;;;5056207;28;20205;-81
2023/05/04 11:22:01;;;;;;;17.08;6.00;;;18.30;90.00;;;;;;5070614;28;20247;-81
2023/05/04 11:24:42;;;;;;;9.77;6.00;;;18.30;90.10;;;;;;5090347;28;20264;-81
2023/05/04 11:27:07;;;;;;;8.50;5.38;;;18.40;89.90;;;;;;5068584;28;20248;-81
2023/05/04 11:29:33;;;;;;;14.07;5.88;;;18.50;88.90;;;;;;5088854;28;20667;-81
2023/05/04 11:31:59;;;;;;;13.95;6.05;;;18.60;88.10;;;;;;5059380;28;20643;-81
2023/05/04 11:34:25;;;;;;;11.20;5.82;;;18.60;88.40;;;;;;5092510;28;20174;-81
2023/05/04 11:36:51;;;;;;;16.42;6.28;;;18.70;88.50;;;;;;5091184;28;20190;-80
2023/05/04 11:39:17;;;;;;;16.73;5.90;;;18.80;87.80;;;;;;5081922;28;20644;-80
2023/05/04 11:41:43;;;;;;;11.23;6.15;;;18.90;87.50;;;;;;5072997;28;20504;-80
2023/05/04 11:44:09;;;;;;;10.60;5.85;;;18.90;85.50;;;;;;5090420;28;20186;-82
2023/05/04 11:46:35;;;;;;;12.23;6.07;;;18.90;85.30;;;;;;5075227;28;20273;-81
2023/05/04 11:49:03;;;;;;;11.57;5.75;;;18.90;84.40;;;;;;5092254;28;20277;-80
2023/05/04 11:51:29;;;;;;;10.38;6.22;;;18.90;84.40;;;;;;5087659;28;20183;-80
2023/05/04 11:53:55;;;;;;;11.35;6.10;;;18.90;84.00;;;;;;5087141;28;20193;-81
2023/05/04 11:56:21;;;;;;;11.38;5.80;;;19.00;84.00;;;;;;5082270;28;20205;-80
2023/05/04 11:58:47;;;;;;;12.70;6.13;;;18.90;83.30;;;;;;5074881;28;20267;-80
2023/05/04 12:01:14;;;;;;;11.48;5.78;;;18.90;82.10;;;;;;5092657;28;20709;-81
2023/05/04 12:03:40;;;;;;;14.10;6.22;;;18.80;80.80;;;;;;5092600;28;20173;-80
2023/05/04 12:06:06;;;;;;;11.57;5.97;;;18.90;80.40;;;;;;5093416;28;20182;-81
2023/05/04 12:08:35;;;;;;;8.55;5.55;;;18.90;80.20;;;;;;5092055;28;20279;-81
2023/05/04 12:11:24;;;;;;;13.27;7.10;;;18.90;78.70;;;;;;5091157;28;20190;-82
2023/05/04 12:14:05;;;;;;;11.23;5.80;;;18.90;76.40;;;;;;5069561;28;20634;-81
2023/05/04 12:16:30;;;;;;;9.68;5.57;;;18.90;77.00;;;;;;5091592;28;20188;-81
2023/05/04 12:19:11;;;;;;;14.63;6.13;;;18.90;76.40;;;;;;5057860;28;20807;-83
2023/05/04 12:21:51;;;;;;;11.95;5.78;;;19.00;75.50;;;;;;5073987;28;20201;-81
2023/05/04 12:24:20;;;;;;;13.98;5.80;;;19.00;76.40;;;;;;5091685;28;20196;-81
2023/05/04 12:26:46;;;;;;;9.43;6.40;;;19.10;75.80;;;;;;5092805;28;20215;-80
2023/05/04 12:29:12;;;;;;;13.57;7.38;;;19.10;75.70;;;;;;5089700;28;20182;-82
2023/05/04 12:31:38;;;;;;;13.45;6.18;;;19.20;76.00;;;;;;5090268;28;20276;-79
2023/05/04 12:34:03;;;;;;;12.82;6.13;;;19.20;75.60;;;;;;5091588;28;20180;-79
2023/05/04 12:36:29;;;;;;;10.25;6.82;;;19.30;75.40;;;;;;5071542;28;20191;-79
2023/05/04 12:38:55;;;;;;;12.70;6.78;;;19.40;75.10;;;;;;5082091;28;20182;-80
2023/05/04 12:41:21;;;;;;;13.77;6.50;;;19.40;74.10;;;;;;5091547;28;20268;-80
2023/05/04 12:43:48;;;;;;;10.05;5.90;;;19.40;73.90;;;;;;5074604;28;20481;-80
2023/05/04 12:46:15;;;;;;;11.93;6.10;;;19.40;73.90;;;;;;5090312;28;20181;-79